Time;durP1;ratioP1;P1;durP2;ratioP2;P2;SDS_P1;SDS_P2;PMS_P1;PMS_P2;Temp;Humidity;BMP_temperature;BMP_pressure;BME280_temperature;BME280_humidity;BME280_pressure;Samples;Min_cycle;Max_cycle;Signal;HPM_P1;HPM_P2
2024/01/10 00:02:10;;;;;;;1.05;1.05;;;;;;;-7.51;66.55;100444.81;5078876;28;20044;-60
2024/01/10 00:04:40;;;;;;;1.20;1.20;;;;;;;-7.46;65.22;100447.97;5077683;28;20407;-59
2024/01/10 00:07:10;;;;;;;1.10;1.10;;;;;;;-7.66;65.47;100447.47;5070452;28;20055;-59
2024/01/10 00:09:37;;;;;;;1.05;1.05;;;;;;;-7.67;64.20;100440.56;5067294;28;20048;-60
2024/01/10 00:12:05;;;;;;;1.20;1.20;;;;;;;-7.63;65.67;100436.84;5073249;28;20074;-60
2024/01/10 00:14:33;;;;;;;1.08;1.08;;;;;;;-7.62;67.58;100438.50;5068196;28;20048;-60
2024/01/10 00:17:00;;;;;;;1.10;1.10;;;;;;;-7.66;71.22;100437.06;5073956;28;20405;-59
2024/01/10 00:19:27;;;;;;;1.20;1.20;;;;;;;-7.96;67.20;100436.34;5072707;28;20036;-59
2024/01/10 00:21:54;;;;;;;1.10;1.10;;;;;;;-7.83;67.43;100442.47;5061674;28;20071;-59
2024/01/10 00:24:21;;;;;;;1.17;1.17;;;;;;;-7.70;66.24;100434.72;5072601;28;20044;-59
2024/01/10 00:26:48;;;;;;;1.10;1.10;;;;;;;-8.07;66.64;100429.19;5074320;28;20044;-59
2024/01/10 00:29:15;;;;;;;1.10;1.10;;;;;;;-8.05;66.10;100435.97;5071885;28;20051;-59
2024/01/10 00:31:44;;;;;;;1.10;1.10;;;;;;;-8.05;66.37;100442.94;5074109;28;20122;-59
2024/01/10 00:34:11;;;;;;;1.20;1.20;;;;;;;-8.09;66.46;100437.09;5073135;28;20048;-59
2024/01/10 00:36:38;;;;;;;1.10;1.10;;;;;;;-8.12;66.16;100433.84;5074909;28;20044;-60
2024/01/10 00:39:06;;;;;;;1.10;1.10;;;;;;;-8.07;65.90;100445.63;5070769;28;20128;-59
2024/01/10 00:41:33;;;;;;;1.10;1.10;;;;;;;-8.06;65.47;100423.91;5075109;28;20032;-59
2024/01/10 00:44:00;;;;;;;1.20;1.20;;;;;;;-7.97;66.76;100427.69;5071136;28;20056;-59
2024/01/10 00:46:27;;;;;;;1.20;1.20;;;;;;;-7.97;66.48;100432.91;5075605;28;20601;-59
2024/01/10 00:48:56;;;;;;;1.10;1.10;;;;;;;-7.98;66.78;100430.41;5076794;28;20043;-59
2024/01/10 00:51:24;;;;;;;1.08;1.08;;;;;;;-7.92;68.35;100432.63;5073815;28;20144;-59
2024/01/10 00:53:51;;;;;;;1.20;1.20;;;;;;;-7.97;66.66;100421.66;5075921;28;20056;-59
2024/01/10 00:56:18;;;;;;;1.20;1.20;;;;;;;-7.97;66.14;100424.25;5070796;28;20398;-59
2024/01/10 00:58:45;;;;;;;1.10;1.10;;;;;;;-7.78;65.30;100423.97;5081246;28;20036;-59
2024/01/10 01:01:12;;;;;;;1.20;1.20;;;;;;;-7.93;66.16;100421.38;5073983;28;20456;-59
2024/01/10 01:03:39;;;;;;;1.20;1.20;;;;;;;-7.97;68.67;100419.06;5072558;28;20171;-59
2024/01/10 01:06:07;;;;;;;1.20;1.20;;;;;;;-8.01;69.44;100418.44;5076309;28;20151;-59
2024/01/10 01:08:34;;;;;;;1.10;1.10;;;;;;;-8.15;68.59;100419.25;5072866;28;20071;-59
2024/01/10 01:11:01;;;;;;;1.10;1.10;;;;;;;-8.06;67.67;100412.66;5074421;28;20045;-59
2024/01/10 01:13:28;;;;;;;1.20;1.20;;;;;;;-8.09;71.22;100416.28;5076060;28;20044;-59
2024/01/10 01:15:55;;;;;;;1.00;1.00;;;;;;;-8.03;73.34;100415.91;5053993;28;20487;-60
2024/01/10 01:18:22;;;;;;;1.10;1.10;;;;;;;-8.17;69.74;100415.91;5072013;28;20055;-59
2024/01/10 01:20:50;;;;;;;1.10;1.10;;;;;;;-8.14;69.27;100410.50;5069567;28;20075;-60
2024/01/10 01:23:18;;;;;;;1.20;1.20;;;;;;;-8.30;69.88;100415.81;5071814;28;20240;-59
2024/01/10 01:25:45;;;;;;;1.10;1.10;;;;;;;-8.17;68.53;100426.31;5073430;28;20046;-59
2024/01/10 01:28:12;;;;;;;1.10;1.10;;;;;;;-8.04;67.71;100419.44;5055083;28;20131;-59
2024/01/10 01:30:40;;;;;;;1.10;1.10;;;;;;;-8.26;68.40;100427.72;5063233;28;20044;-59
2024/01/10 01:33:07;;;;;;;1.20;1.20;;;;;;;-8.30;69.68;100426.22;5081099;28;20411;-59
2024/01/10 01:35:34;;;;;;;1.00;1.00;;;;;;;-8.31;69.17;100423.72;5079123;28;20036;-59
2024/01/10 01:38:00;;;;;;;1.10;1.10;;;;;;;-8.16;70.82;100425.41;5079961;28;20503;-59
2024/01/10 01:40:29;;;;;;;1.20;1.20;;;;;;;-8.09;68.33;100433.66;5070914;28;20048;-60
2024/01/10 01:42:56;;;;;;;1.20;1.20;;;;;;;-8.14;68.98;100414.88;5080883;28;20113;-60
2024/01/10 01:45:24;;;;;;;1.10;1.10;;;;;;;-8.10;68.47;100416.38;5075791;28;20140;-59
2024/01/10 01:47:51;;;;;;;1.20;1.20;;;;;;;-8.20;69.85;100426.50;5076834;28;20045;-59
2024/01/10 01:50:18;;;;;;;1.20;1.20;;;;;;;-8.19;71.45;100428.16;5072136;28;20433;-59
2024/01/10 01:52:45;;;;;;;1.20;1.20;;;;;;;-8.12;71.19;100419.06;5079880;28;20157;-58
2024/01/10 01:55:12;;;;;;;1.27;1.27;;;;;;;-8.26;72.28;100416.50;5079555;28;20051;-59
2024/01/10 01:57:41;;;;;;;1.20;1.20;;;;;;;-7.93;71.31;100412.75;5080867;28;20047;-59
2024/01/10 02:00:09;;;;;;;1.20;1.20;;;;;;;-8.05;72.75;100415.16;5074778;28;20458;-59
2024/01/10 02:02:37;;;;;;;1.20;1.20;;;;;;;-8.14;73.10;100407.91;5063062;28;20689;-59
2024/01/10 02:05:04;;;;;;;1.00;1.00;;;;;;;-8.10;71.57;100412.00;5080450;28;20125;-59
2024/01/10 02:07:31;;;;;;;1.10;1.10;;;;;;;-8.41;73.93;100409.63;5078638;28;20060;-59
2024/01/10 02:09:58;;;;;;;1.10;1.10;;;;;;;-8.60;76.86;100417.69;5075710;28;20050;-58
2024/01/10 02:12:25;;;;;;;1.20;1.20;;;;;;;-8.75;78.76;100415.06;5068212;28;20049;-58
2024/01/10 02:14:54;;;;;;;1.20;1.20;;;;;;;-8.76;79.81;100417.75;5072163;28;20106;-58
2024/01/10 02:17:21;;;;;;;1.20;1.20;;;;;;;-8.77;79.43;100414.31;5071256;28;20132;-60
2024/01/10 02:19:48;;;;;;;1.20;1.20;;;;;;;-8.73;82.15;100408.03;5076045;28;20036;-62
2024/01/10 02:22:15;;;;;;;1.20;1.20;;;;;;;-8.82;82.22;100402.53;5080255;28;20042;-60
2024/01/10 02:24:42;;;;;;;1.10;1.10;;;;;;;-8.65;82.25;100402.38;5083517;28;20043;-60
2024/01/10 02:27:11;;;;;;;1.20;1.20;;;;;;;-8.51;76.09;100393.72;5077459;28;20128;-60
2024/01/10 02:29:38;;;;;;;1.20;1.20;;;;;;;-8.44;75.26;100394.22;5077695;28;20036;-60
2024/01/10 02:32:05;;;;;;;1.17;1.17;;;;;;;-8.47;76.69;100393.47;5074895;28;20044;-61
2024/01/10 02:34:32;;;;;;;1.20;1.20;;;;;;;-8.68;77.60;100393.00;5080129;28;20571;-60
2024/01/10 02:37:00;;;;;;;1.20;1.20;;;;;;;-8.51;75.56;100394.59;5070300;28;20542;-60
2024/01/10 02:39:27;;;;;;;1.10;1.10;;;;;;;-8.55;75.21;100387.06;5071650;28;20117;-60
2024/01/10 02:41:54;;;;;;;1.20;1.20;;;;;;;-8.50;74.98;100385.84;5074489;28;20131;-60
2024/01/10 02:44:23;;;;;;;1.20;1.20;;;;;;;-8.58;75.75;100390.69;5080766;28;20114;-60
2024/01/10 02:46:50;;;;;;;1.20;1.20;;;;;;;-8.63;79.57;100397.91;5077764;28;20047;-60
2024/01/10 02:49:18;;;;;;;1.10;1.10;;;;;;;-8.85;81.75;100392.31;5062193;28;20135;-60
2024/01/10 02:51:45;;;;;;;1.20;1.20;;;;;;;-8.92;82.75;100387.47;5071334;28;20048;-60
2024/01/10 02:54:12;;;;;;;1.23;1.23;;;;;;;-9.09;82.44;100382.41;5075814;28;20123;-60
2024/01/10 02:56:39;;;;;;;1.20;1.20;;;;;;;-9.16;80.29;100383.69;5077273;28;20125;-60
2024/01/10 02:59:06;;;;;;;1.27;1.27;;;;;;;-9.04;79.21;100380.38;5076404;28;20141;-60
2024/01/10 03:01:34;;;;;;;1.20;1.20;;;;;;;-8.93;79.46;100378.00;5078795;28;20379;-60
2024/01/10 03:04:01;;;;;;;1.10;1.10;;;;;;;-8.83;81.44;100374.88;5072907;28;21472;-60
2024/01/10 03:06:28;;;;;;;1.15;1.15;;;;;;;-8.97;82.63;100373.91;5060488;28;20040;-60
2024/01/10 03:08:56;;;;;;;1.10;1.10;;;;;;;-8.74;86.89;100379.50;5076825;28;20060;-60
2024/01/10 03:11:23;;;;;;;1.20;1.20;;;;;;;-8.61;90.27;100379.63;5069020;28;20051;-60
2024/01/10 03:13:51;;;;;;;1.10;1.10;;;;;;;-8.54;93.91;100381.75;5068326;28;20045;-60
2024/01/10 03:16:18;;;;;;;1.10;1.10;;;;;;;-8.54;90.85;100379.16;5077036;28;20040;-60
2024/01/10 03:18:47;;;;;;;1.15;1.15;;;;;;;-8.57;87.51;100368.13;5082082;28;20048;-60
2024/01/10 03:21:14;;;;;;;1.10;1.10;;;;;;;-8.77;83.79;100369.31;5070654;28;20098;-60
2024/01/10 03:23:41;;;;;;;1.20;1.20;;;;;;;-8.89;83.04;100363.06;5077143;28;20048;-60
2024/01/10 03:26:08;;;;;;;1.20;1.20;;;;;;;-8.79;83.83;100371.97;5076913;28;20138;-60
2024/01/10 03:28:35;;;;;;;1.15;1.15;;;;;;;-8.85;83.38;100376.72;5074680;28;20040;-60
2024/01/10 03:31:02;;;;;;;1.20;1.20;;;;;;;-8.82;81.72;100366.16;5073825;28;20052;-60
2024/01/10 03:33:29;;;;;;;1.20;1.20;;;;;;;-8.77;82.66;100375.34;5071360;28;20044;-60
2024/01/10 03:35:57;;;;;;;1.20;1.20;;;;;;;-8.61;85.17;100369.22;5068133;28;20537;-59
2024/01/10 03:38:24;;;;;;;1.20;1.20;;;;;;;-8.36;88.94;100364.19;5075660;28;20052;-60
2024/01/10 03:40:51;;;;;;;1.20;1.20;;;;;;;-8.46;82.97;100360.53;5073874;28;20349;-59
2024/01/10 03:43:18;;;;;;;1.10;1.10;;;;;;;-8.20;85.65;100358.03;5076868;28;20071;-60
2024/01/10 03:45:47;;;;;;;1.20;1.20;;;;;;;-8.47;81.02;100362.25;5079362;28;20044;-60
2024/01/10 03:48:14;;;;;;;1.20;1.20;;;;;;;-8.55;81.92;100371.47;5080628;28;20044;-60
2024/01/10 03:50:41;;;;;;;1.20;1.20;;;;;;;-8.63;82.77;100366.72;5072991;28;20524;-60
2024/01/10 03:53:09;;;;;;;1.20;1.20;;;;;;;-8.73;84.14;100361.25;5068557;28;20125;-59
2024/01/10 03:55:36;;;;;;;1.20;1.20;;;;;;;-8.75;85.14;100367.47;5077239;28;20044;-60
2024/01/10 03:58:04;;;;;;;1.20;1.20;;;;;;;-7.91;82.99;100364.88;5071713;28;20928;-60
2024/01/10 04:00:31;;;;;;;1.20;1.20;;;;;;;-7.76;80.58;100357.88;5073436;28;20043;-60
2024/01/10 04:02:58;;;;;;;1.10;1.10;;;;;;;-8.08;78.13;100355.50;5072403;28;20211;-60
2024/01/10 04:05:25;;;;;;;1.10;1.10;;;;;;;-8.14;77.49;100353.28;5057960;28;20083;-60
2024/01/10 04:07:52;;;;;;;1.20;1.20;;;;;;;-8.43;79.88;100351.69;5067660;28;20055;-60
2024/01/10 04:10:21;;;;;;;1.15;1.15;;;;;;;-8.32;85.90;100338.81;5076898;28;20115;-60
2024/01/10 04:12:48;;;;;;;1.00;1.00;;;;;;;-8.08;89.88;100354.69;5076892;28;20627;-60
2024/01/10 04:15:15;;;;;;;1.10;1.10;;;;;;;-8.22;82.44;100350.31;5069356;28;20040;-60
2024/01/10 04:17:42;;;;;;;1.20;1.20;;;;;;;-8.37;83.55;100340.88;5077124;28;20736;-60
2024/01/10 04:20:10;;;;;;;1.20;1.20;;;;;;;-8.68;87.23;100353.19;5073563;28;20036;-60
2024/01/10 04:22:37;;;;;;;1.20;1.20;;;;;;;-8.70;89.24;100355.84;5072820;28;20090;-60
2024/01/10 04:25:06;;;;;;;1.20;1.20;;;;;;;-9.08;91.85;100365.91;5062841;28;20036;-59
2024/01/10 04:27:35;;;;;;;1.10;1.10;;;;;;;-9.01;91.46;100367.25;5075175;28;20051;-59
2024/01/10 04:30:03;;;;;;;1.20;1.20;;;;;;;-8.70;95.87;100368.03;5075379;28;20043;-60
2024/01/10 04:32:31;;;;;;;1.10;1.10;;;;;;;-8.62;90.05;100363.19;5074756;28;20052;-60
2024/01/10 04:34:59;;;;;;;1.20;1.20;;;;;;;-8.51;91.50;100354.72;5068484;28;20080;-59
2024/01/10 04:37:27;;;;;;;1.10;1.10;;;;;;;-8.12;90.91;100354.03;5076846;28;20363;-60
2024/01/10 04:39:54;;;;;;;1.10;1.10;;;;;;;-8.17;86.52;100348.28;5076382;28;20129;-59
2024/01/10 04:42:21;;;;;;;1.20;1.20;;;;;;;-8.22;84.88;100355.53;5076845;28;20098;-60
2024/01/10 04:44:50;;;;;;;1.10;1.10;;;;;;;-8.30;83.97;100352.56;5054988;28;20059;-59
2024/01/10 04:47:17;;;;;;;1.20;1.20;;;;;;;-8.30;85.08;100352.56;5068729;28;20154;-60
2024/01/10 04:49:44;;;;;;;1.15;1.15;;;;;;;-8.31;86.22;100356.94;5072373;28;20076;-60
2024/01/10 04:52:12;;;;;;;1.20;1.20;;;;;;;-8.56;85.90;100349.84;5069486;28;20068;-60
2024/01/10 04:54:39;;;;;;;1.20;1.20;;;;;;;-8.81;87.96;100352.22;5065919;28;20044;-60
2024/01/10 04:57:07;;;;;;;1.20;1.20;;;;;;;-8.95;90.02;100340.88;5079004;28;20134;-60
2024/01/10 04:59:34;;;;;;;1.17;1.17;;;;;;;-9.07;90.84;100338.19;5052752;28;20130;-60
2024/01/10 05:02:02;;;;;;;1.20;1.20;;;;;;;-9.13;96.33;100335.00;5067673;28;20040;-59
2024/01/10 05:04:29;;;;;;;1.20;1.20;;;;;;;-8.95;95.35;100338.28;5077632;28;20099;-60
2024/01/10 05:06:56;;;;;;;1.20;1.20;;;;;;;-8.64;95.02;100339.03;5071798;28;20040;-60
2024/01/10 05:09:23;;;;;;;1.20;1.20;;;;;;;-8.52;89.41;100327.06;5076327;28;20052;-60
2024/01/10 05:11:52;;;;;;;1.20;1.20;;;;;;;-8.45;86.15;100324.94;5075357;28;20048;-60
2024/01/10 05:14:19;;;;;;;1.10;1.10;;;;;;;-8.40;86.22;100325.50;5076618;28;20052;-60
2024/01/10 05:16:48;;;;;;;1.17;1.17;;;;;;;-8.49;85.51;100332.09;5077227;28;20267;-60
2024/01/10 05:19:16;;;;;;;1.20;1.20;;;;;;;-8.51;86.00;100328.72;5073022;28;20052;-60
2024/01/10 05:21:43;;;;;;;1.17;1.17;;;;;;;-8.57;86.83;100334.31;5074945;28;20424;-60
2024/01/10 05:24:10;;;;;;;1.10;1.10;;;;;;;-8.69;86.78;100333.28;5076863;28;20064;-60
2024/01/10 05:26:37;;;;;;;1.20;1.20;;;;;;;-8.77;88.73;100332.94;5072966;28;20447;-60
2024/01/10 05:29:04;;;;;;;1.20;1.20;;;;;;;-8.82;89.28;100329.75;5079695;28;20560;-60
2024/01/10 05:31:31;;;;;;;1.20;1.20;;;;;;;-8.89;90.69;100334.47;5071072;28;20159;-60
2024/01/10 05:33:58;;;;;;;1.10;1.10;;;;;;;-8.82;90.65;100334.97;5070768;28;20044;-59
2024/01/10 05:36:28;;;;;;;1.10;1.10;;;;;;;-8.77;90.92;100327.72;5072702;28;20132;-60
2024/01/10 05:38:55;;;;;;;1.20;1.20;;;;;;;-8.82;92.01;100345.34;5049228;28;20481;-60
2024/01/10 05:41:22;;;;;;;1.20;1.20;;;;;;;-8.87;92.10;100326.59;5078550;28;20294;-60
2024/01/10 05:43:50;;;;;;;1.10;1.10;;;;;;;-8.86;92.88;100338.66;5067640;28;20579;-60
2024/01/10 05:46:17;;;;;;;1.20;1.20;;;;;;;-8.99;92.98;100336.78;5080919;28;20354;-60
2024/01/10 05:48:46;;;;;;;1.20;1.20;;;;;;;-8.96;93.74;100339.22;5074936;28;20569;-60
2024/01/10 05:51:13;;;;;;;1.10;1.10;;;;;;;-9.02;93.39;100341.34;5080360;28;20056;-60
2024/01/10 05:53:41;;;;;;;1.10;1.10;;;;;;;-9.07;94.37;100336.41;5078735;28;20040;-60
2024/01/10 05:56:08;;;;;;;1.20;1.20;;;;;;;-9.02;95.21;100331.78;5079852;28;20040;-60
2024/01/10 05:58:36;;;;;;;1.10;1.10;;;;;;;-8.95;93.46;100335.69;5080669;28;20075;-60
2024/01/10 06:01:03;;;;;;;1.20;1.20;;;;;;;-8.93;93.33;100335.59;5073543;28;20667;-60
2024/01/10 06:03:30;;;;;;;1.20;1.20;;;;;;;-8.91;92.93;100337.19;5053106;28;20403;-60
2024/01/10 06:05:57;;;;;;;1.10;1.10;;;;;;;-9.00;93.77;100342.91;5075543;28;20043;-60
2024/01/10 06:08:25;;;;;;;1.20;1.20;;;;;;;-8.88;95.76;100348.31;5074504;28;20861;-61
2024/01/10 06:10:54;;;;;;;1.20;1.20;;;;;;;-8.83;93.49;100346.28;5075728;28;20052;-60
2024/01/10 06:13:21;;;;;;;1.20;1.20;;;;;;;-8.97;93.15;100341.91;5079650;28;20490;-61
2024/01/10 06:15:48;;;;;;;1.20;1.20;;;;;;;-9.07;96.33;100346.81;5074990;28;20513;-60
2024/01/10 06:18:15;;;;;;;1.10;1.10;;;;;;;-9.03;95.28;100337.91;5080897;28;20041;-60
2024/01/10 06:20:42;;;;;;;1.10;1.10;;;;;;;-9.01;94.23;100343.00;5075290;28;20433;-60
2024/01/10 06:23:10;;;;;;;1.20;1.20;;;;;;;-9.06;94.61;100337.25;5053526;28;20048;-60
2024/01/10 06:25:37;;;;;;;1.25;1.25;;;;;;;-9.07;95.65;100336.41;5076055;28;20127;-60
2024/01/10 06:28:06;;;;;;;1.20;1.20;;;;;;;-8.98;96.69;100328.09;5076466;28;20056;-60
2024/01/10 06:30:33;;;;;;;1.20;1.20;;;;;;;-8.86;97.07;100333.47;5073194;28;20078;-60
2024/01/10 06:33:00;;;;;;;1.20;1.20;;;;;;;-9.03;96.32;100327.53;5073785;28;20115;-60
2024/01/10 06:35:27;;;;;;;1.13;1.13;;;;;;;-8.84;95.97;100331.63;5075323;28;20131;-60
2024/01/10 06:37:55;;;;;;;1.10;1.10;;;;;;;-8.77;95.84;100335.53;5063294;28;20052;-60
2024/01/10 06:40:22;;;;;;;1.20;1.20;;;;;;;-8.76;94.41;100340.63;5077339;28;20644;-60
2024/01/10 06:42:49;;;;;;;1.15;1.15;;;;;;;-8.93;92.92;100339.03;5076499;28;20123;-60
2024/01/10 06:45:17;;;;;;;1.20;1.20;;;;;;;-8.72;95.04;100341.28;5076322;28;20040;-60
2024/01/10 06:47:45;;;;;;;1.10;1.10;;;;;;;-8.52;95.55;100337.47;5071800;28;20234;-60
2024/01/10 06:50:12;;;;;;;1.20;1.20;;;;;;;-8.44;93.98;100334.41;5071774;28;20112;-60
2024/01/10 06:52:39;;;;;;;1.20;1.20;;;;;;;-8.34;95.09;100332.88;5073444;28;20299;-60
2024/01/10 06:55:08;;;;;;;1.20;1.20;;;;;;;-8.71;92.50;100337.75;5080066;28;20071;-60
2024/01/10 06:57:35;;;;;;;1.20;1.20;;;;;;;-8.81;95.03;100341.81;5079668;28;20922;-60
2024/01/10 07:00:06;;;;;;;1.10;1.10;;;;;;;-8.64;95.86;100328.66;5074023;28;20040;-60
2024/01/10 07:02:35;;;;;;;1.20;1.20;;;;;;;-8.57;96.25;100329.94;5071248;28;20058;-59
2024/01/10 07:05:05;;;;;;;1.20;1.20;;;;;;;-8.55;94.67;100335.91;5047799;28;20622;-60
2024/01/10 07:07:35;;;;;;;1.20;1.20;;;;;;;-8.59;95.12;100337.00;5060886;28;20067;-60
2024/01/10 07:10:04;;;;;;;1.20;1.20;;;;;;;-8.68;94.79;100343.59;5078688;28;20048;-60
2024/01/10 07:12:31;;;;;;;1.10;1.10;;;;;;;-8.73;95.32;100342.22;5047142;28;20059;-60
2024/01/10 07:14:59;;;;;;;1.20;1.20;;;;;;;-9.04;95.44;100349.22;5074588;28;20126;-60
2024/01/10 07:17:26;;;;;;;1.20;1.20;;;;;;;-9.14;96.71;100346.31;5077012;28;20131;-60
2024/01/10 07:19:56;;;;;;;1.10;1.10;;;;;;;-9.08;98.15;100345.13;5075430;28;20048;-59
2024/01/10 07:22:23;;;;;;;1.15;1.15;;;;;;;-8.94;97.59;100346.91;5074510;28;20109;-60
2024/01/10 07:24:50;;;;;;;1.20;1.20;;;;;;;-8.72;97.78;100349.91;5068843;28;20036;-60
2024/01/10 07:27:18;;;;;;;1.20;1.20;;;;;;;-8.57;96.33;100355.94;5058101;28;20278;-59
2024/01/10 07:29:45;;;;;;;1.20;1.20;;;;;;;-8.81;94.77;100354.81;5072941;28;20044;-60
2024/01/10 07:32:13;;;;;;;1.20;1.20;;;;;;;-8.63;93.72;100361.53;5072285;28;20044;-60
2024/01/10 07:34:40;;;;;;;1.10;1.10;;;;;;;-8.68;94.02;100363.56;5070911;28;20503;-60
2024/01/10 07:37:10;;;;;;;1.10;1.10;;;;;;;-8.61;93.84;100359.69;5073949;28;20465;-60
2024/01/10 07:39:37;;;;;;;;;;;;;;;-8.53;94.48;100369.63;5072238;28;20055;-59
2024/01/10 07:42:05;;;;;;;1.10;1.10;;;;;;;-8.43;94.57;100369.91;5058697;28;19935;-60
2024/01/10 07:44:32;;;;;;;1.23;1.23;;;;;;;-8.36;94.22;100374.59;5079218;28;20140;-60
2024/01/10 07:46:59;;;;;;;1.20;1.20;;;;;;;-8.30;93.65;100374.22;5082562;28;20832;-60
2024/01/10 07:49:26;;;;;;;1.10;1.10;;;;;;;-8.30;92.69;100378.59;5072536;28;20044;-60
2024/01/10 07:51:54;;;;;;;1.20;1.20;;;;;;;-8.36;91.47;100376.34;5078744;28;20406;-60
2024/01/10 07:54:22;;;;;;;1.20;1.20;;;;;;;-8.31;91.94;100375.16;5075262;28;20219;-60
2024/01/10 07:56:49;;;;;;;1.20;1.20;;;;;;;-8.27;92.40;100383.59;5074637;28;20829;-60
2024/01/10 07:59:17;;;;;;;1.20;1.20;;;;;;;-8.10;93.19;100386.00;5073147;28;20315;-60
2024/01/10 08:01:45;;;;;;;1.13;1.13;;;;;;;-7.92;92.88;100383.19;5068927;28;20127;-59
2024/01/10 08:04:12;;;;;;;1.20;1.20;;;;;;;-7.82;96.04;100386.88;5077052;28;20530;-60
2024/01/10 08:06:40;;;;;;;1.20;1.20;;;;;;;-7.81;92.87;100385.97;5071800;28;20067;-60
2024/01/10 08:09:07;;;;;;;1.20;1.20;;;;;;;-8.12;92.46;100385.25;5076019;28;20053;-59
2024/01/10 08:11:35;;;;;;;1.20;1.20;;;;;;;-7.98;92.83;100388.78;5074517;28;20041;-60
2024/01/10 08:14:03;;;;;;;1.20;1.20;;;;;;;-8.00;92.39;100385.44;5078700;28;20051;-60
2024/01/10 08:16:32;;;;;;;1.10;1.10;;;;;;;-7.87;91.86;100396.72;5072261;28;20350;-60
2024/01/10 08:18:59;;;;;;;1.20;1.20;;;;;;;-7.64;96.14;100406.56;5074846;28;20043;-60
2024/01/10 08:21:27;;;;;;;1.10;1.10;;;;;;;-7.53;91.13;100397.22;5072323;28;20032;-59
2024/01/10 08:23:54;;;;;;;1.20;1.20;;;;;;;-7.46;89.50;100401.06;5069435;28;20702;-60
2024/01/10 08:26:21;;;;;;;1.20;1.20;;;;;;;-7.34;89.34;100394.25;5074436;28;20051;-60
2024/01/10 08:28:49;;;;;;;1.20;1.20;;;;;;;-7.39;89.32;100400.63;5076718;28;20054;-60
2024/01/10 08:31:17;;;;;;;1.15;1.15;;;;;;;-7.29;89.69;100403.44;5076483;28;20144;-59
2024/01/10 08:33:44;;;;;;;1.10;1.10;;;;;;;-6.93;87.81;100404.59;5046792;28;20145;-60
2024/01/10 08:36:12;;;;;;;1.10;1.10;;;;;;;-6.82;82.63;100396.88;5071464;28;20059;-60
2024/01/10 08:38:39;;;;;;;1.10;1.10;;;;;;;-6.80;84.51;100395.00;5067880;28;20054;-60
2024/01/10 08:41:08;;;;;;;1.10;1.10;;;;;;;-6.60;82.67;100400.66;5043406;28;20135;-59
2024/01/10 08:43:36;;;;;;;1.10;1.10;;;;;;;-6.46;82.52;100397.94;5068679;28;20760;-60
2024/01/10 08:46:04;;;;;;;1.10;1.10;;;;;;;-6.43;81.94;100404.72;5072547;28;20048;-60
2024/01/10 08:48:31;;;;;;;1.10;1.10;;;;;;;-6.24;83.41;100407.75;5077553;28;20050;-60
2024/01/10 08:50:58;;;;;;;1.23;1.20;;;;;;;-6.12;82.86;100406.03;5075782;28;20036;-60
2024/01/10 08:53:25;;;;;;;1.00;1.00;;;;;;;-5.98;84.36;100407.72;5055030;28;20068;-60
2024/01/10 08:55:52;;;;;;;1.08;1.08;;;;;;;-6.19;87.14;100403.06;5054490;28;20040;-60
2024/01/10 08:58:19;;;;;;;1.10;1.10;;;;;;;-6.17;91.08;100414.19;5070754;28;20317;-61
2024/01/10 09:00:47;;;;;;;1.20;1.20;;;;;;;-6.49;92.33;100413.78;5076948;28;20416;-60
2024/01/10 09:03:15;;;;;;;1.20;1.20;;;;;;;-6.23;88.92;100414.63;5069664;28;20105;-60
2024/01/10 09:05:42;;;;;;;1.10;1.10;;;;;;;-6.15;82.32;100414.94;5056058;28;20048;-59
2024/01/10 09:08:09;;;;;;;1.10;1.10;;;;;;;-5.93;82.41;100416.03;5075195;28;20155;-59
2024/01/10 09:10:38;;;;;;;1.10;1.10;;;;;;;-5.68;82.33;100420.34;5073136;28;20135;-60
2024/01/10 09:13:05;;;;;;;1.05;1.05;;;;;;;-5.42;82.73;100416.72;5071394;28;20495;-60
2024/01/10 09:15:32;;;;;;;1.00;1.00;;;;;;;-5.38;83.04;100422.53;5072611;28;20047;-60
2024/01/10 09:18:00;;;;;;;1.10;1.10;;;;;;;-5.62;83.07;100425.13;5069686;28;20048;-60
2024/01/10 09:20:28;;;;;;;1.10;1.10;;;;;;;-5.42;83.36;100427.16;5071420;28;20051;-60
2024/01/10 09:22:55;;;;;;;0.95;0.95;;;;;;;-5.48;82.23;100430.19;5069364;28;20143;-60
2024/01/10 09:25:22;;;;;;;1.17;1.17;;;;;;;-5.36;82.32;100425.06;5076112;28;20048;-60
2024/01/10 09:27:49;;;;;;;1.10;1.10;;;;;;;-5.22;81.55;100430.09;5073614;28;20080;-60
2024/01/10 09:30:18;;;;;;;1.10;1.10;;;;;;;-5.21;79.99;100434.41;5073597;28;20056;-60
2024/01/10 09:32:45;;;;;;;1.08;1.08;;;;;;;-5.17;79.44;100432.38;5069158;28;20047;-60
2024/01/10 09:35:13;;;;;;;1.02;1.02;;;;;;;-5.14;78.91;100430.38;5072870;28;20049;-60
2024/01/10 09:37:41;;;;;;;1.10;1.10;;;;;;;-5.45;79.14;100437.81;5076495;28;20036;-60
2024/01/10 09:40:10;;;;;;;1.10;1.10;;;;;;;-5.72;77.68;100431.94;5073327;28;20040;-60
2024/01/10 09:42:37;;;;;;;1.17;1.17;;;;;;;-5.56;78.43;100434.31;5073128;28;20052;-60
2024/01/10 09:45:06;;;;;;;1.10;1.10;;;;;;;-5.35;78.05;100432.75;5071832;28;20124;-60
2024/01/10 09:47:33;;;;;;;1.10;1.10;;;;;;;-5.37;76.29;100433.81;5070890;28;20131;-60
2024/01/10 09:50:02;;;;;;;1.20;1.20;;;;;;;-5.24;77.43;100439.84;5073581;28;20051;-58
2024/01/10 09:52:29;;;;;;;1.20;1.20;;;;;;;-5.15;76.18;100433.94;5071079;28;20052;-59
2024/01/10 09:54:58;;;;;;;1.10;1.10;;;;;;;-4.82;75.04;100435.88;5072807;28;20446;-60
2024/01/10 09:57:26;;;;;;;1.10;1.10;;;;;;;-4.55;74.71;100435.56;5077101;28;20051;-60
2024/01/10 09:59:54;;;;;;;1.10;1.10;;;;;;;-4.14;72.69;100426.34;5074783;28;20043;-60
2024/01/10 10:02:22;;;;;;;1.10;1.10;;;;;;;-4.22;72.27;100431.34;5058491;28;20067;-60
2024/01/10 10:04:55;;;;;;;1.00;1.00;;;;;;;-4.20;71.38;100431.22;5076980;28;20068;-59
2024/01/10 10:07:22;;;;;;;1.00;1.00;;;;;;;-4.00;70.11;100432.28;5056620;28;20159;-60
2024/01/10 10:09:49;;;;;;;1.10;1.10;;;;;;;-3.98;71.67;100427.75;5078368;28;20136;-60
2024/01/10 10:12:17;;;;;;;1.10;1.10;;;;;;;-3.80;71.47;100426.31;5049259;28;20480;-60
2024/01/10 10:14:44;;;;;;;1.10;1.10;;;;;;;-3.38;69.16;100412.56;5072341;28;20152;-60
2024/01/10 10:17:17;;;;;;;1.10;1.10;;;;;;;-3.22;67.17;100412.13;5075682;28;20040;-60
2024/01/10 10:19:45;;;;;;;1.05;1.05;;;;;;;-3.32;66.72;100406.78;5076280;28;20105;-60
2024/01/10 10:22:12;;;;;;;1.00;1.00;;;;;;;-3.11;66.41;100414.72;5071975;28;20371;-60
2024/01/10 10:24:39;;;;;;;1.08;1.08;;;;;;;-3.04;65.46;100415.91;5071975;28;20241;-60
2024/01/10 10:27:09;;;;;;;1.10;1.10;;;;;;;-2.98;63.65;100415.38;5074737;28;20123;-60
2024/01/10 10:29:39;;;;;;;1.00;1.00;;;;;;;-3.13;63.94;100414.00;5070934;28;20542;-61
2024/01/10 10:32:08;;;;;;;1.10;1.10;;;;;;;-3.91;64.72;100411.44;5074228;28;20689;-60
2024/01/10 10:34:35;;;;;;;1.05;1.05;;;;;;;-3.97;64.84;100421.56;5073470;28;20415;-60
2024/01/10 10:37:02;;;;;;;1.10;1.10;;;;;;;-3.30;62.41;100413.56;5078030;28;20479;-58
2024/01/10 10:39:29;;;;;;;1.10;1.10;;;;;;;-4.15;62.69;100415.97;5059185;28;20093;-58
2024/01/10 10:41:57;;;;;;;1.10;1.10;;;;;;;-3.56;60.67;100420.94;5074213;28;20044;-60
2024/01/10 10:44:25;;;;;;;1.00;1.00;;;;;;;-3.98;61.69;100417.28;5077701;28;20136;-58
2024/01/10 10:46:54;;;;;;;1.00;1.00;;;;;;;-4.26;62.32;100414.19;5064156;28;20040;-60
2024/01/10 10:49:28;;;;;;;1.00;1.00;;;;;;;-3.97;61.26;100416.31;5075042;28;20040;-60
2024/01/10 10:51:55;;;;;;;1.00;1.00;;;;;;;-4.48;63.37;100416.78;5073623;28;20093;-60
2024/01/10 10:54:22;;;;;;;1.10;1.10;;;;;;;-4.34;64.12;100408.72;5075711;28;20086;-60
2024/01/10 10:56:49;;;;;;;1.20;1.20;;;;;;;-4.20;61.68;100416.31;5070244;28;20126;-60
2024/01/10 10:59:16;;;;;;;0.90;0.90;;;;;;;-4.35;62.92;100407.03;5070020;28;20041;-59
2024/01/10 11:01:44;;;;;;;1.10;1.10;;;;;;;-3.93;66.04;100409.91;5074933;28;20139;-59
2024/01/10 11:04:13;;;;;;;1.10;1.10;;;;;;;-3.83;62.53;100413.47;5076676;28;20727;-59
2024/01/10 11:06:41;;;;;;;1.02;1.02;;;;;;;-3.70;61.89;100408.09;5071518;28;20051;-60
2024/01/10 11:09:10;;;;;;;1.00;1.00;;;;;;;-3.79;60.85;100414.06;5074727;28;20154;-59
2024/01/10 11:11:46;;;;;;;1.10;1.10;;;;;;;-3.70;61.37;100415.94;5049613;28;20048;-60
2024/01/10 11:14:21;;;;;;;0.93;0.93;;;;;;;-3.83;62.12;100416.09;5078473;28;20059;-60
2024/01/10 11:17:24;;;;;;;0.98;0.98;;;;;;;-3.99;61.42;100413.03;5069908;28;20531;-60
2024/01/10 11:20:14;;;;;;;0.98;0.98;;;;;;;-3.77;62.64;100407.75;5071510;28;20502;-60
2024/01/10 11:22:59;;;;;;;1.10;1.10;;;;;;;-4.06;62.55;100411.81;5076406;28;20041;-60
2024/01/10 11:25:29;;;;;;;1.10;1.10;;;;;;;-3.66;62.34;100408.69;5068855;28;20049;-60
2024/01/10 11:27:56;;;;;;;1.00;1.00;;;;;;;-3.62;62.98;100412.72;5077343;28;20032;-60